createdAt,value
2023-02-16T00:01:52.950Z,99.90
2023-02-16T00:04:23.508Z,99.90
2023-02-16T00:06:51.567Z,99.90
2023-02-16T00:09:19.778Z,99.90
2023-02-16T00:12:06.442Z,99.90
2023-02-16T00:14:36.386Z,99.90
2023-02-16T00:17:04.747Z,99.90
2023-02-16T00:19:35.806Z,99.90
2023-02-16T00:22:04.150Z,99.90
2023-02-16T00:24:31.914Z,99.90
2023-02-16T00:27:00.585Z,99.90
2023-02-16T00:29:37.482Z,99.90
2023-02-16T00:32:06.286Z,99.90
2023-02-16T00:34:35.372Z,99.90
2023-02-16T00:37:08.041Z,99.90
2023-02-16T00:39:36.591Z,99.90
2023-02-16T00:42:06.702Z,99.90
2023-02-16T00:44:43.370Z,99.90
2023-02-16T00:47:19.993Z,99.90
2023-02-16T00:49:48.803Z,99.90
2023-02-16T00:52:38.051Z,99.90
2023-02-16T00:55:17.379Z,99.90
2023-02-16T00:57:47.271Z,99.90
2023-02-16T01:00:25.566Z,99.90
2023-02-16T01:02:55.460Z,99.90
2023-02-16T01:05:22.888Z,99.90
2023-02-16T01:08:08.862Z,99.90
2023-02-16T01:10:56.016Z,99.90
2023-02-16T01:13:25.008Z,99.90
2023-02-16T01:15:52.370Z,99.90
2023-02-16T01:18:21.174Z,99.90
2023-02-16T01:20:49.549Z,99.90
2023-02-16T01:23:16.600Z,99.90
2023-02-16T01:25:43.866Z,99.90
2023-02-16T01:28:20.627Z,99.90
2023-02-16T01:30:48.756Z,99.90
2023-02-16T01:33:16.106Z,99.90
2023-02-16T01:35:44.303Z,99.90
2023-02-16T01:38:26.341Z,99.90
2023-02-16T01:41:22.763Z,99.90
2023-02-16T01:43:59.199Z,99.90
2023-02-16T01:46:43.429Z,99.90
2023-02-16T01:49:15.426Z,99.90
2023-02-16T01:51:52.465Z,99.90
2023-02-16T01:54:58.277Z,99.90
2023-02-16T01:57:40.043Z,99.90
2023-02-16T02:00:22.567Z,99.90
2023-02-16T02:03:19.947Z,99.90
2023-02-16T02:05:49.943Z,99.90
2023-02-16T02:08:37.205Z,99.90
2023-02-16T02:11:14.409Z,99.90
2023-02-16T02:14:00.369Z,99.90
2023-02-16T02:16:28.583Z,99.90
2023-02-16T02:18:55.643Z,99.90
2023-02-16T02:22:03.819Z,99.90
2023-02-16T02:24:58.634Z,99.90
2023-02-16T02:27:27.351Z,99.90
2023-02-16T02:30:30.163Z,99.90
2023-02-16T02:33:12.305Z,99.90
2023-02-16T02:36:03.578Z,99.90
2023-02-16T02:38:53.853Z,99.90
2023-02-16T02:41:57.464Z,99.90
2023-02-16T02:44:27.174Z,99.90
2023-02-16T02:46:54.885Z,99.90
2023-02-16T02:49:22.325Z,99.90
2023-02-16T02:51:50.653Z,99.90
2023-02-16T02:54:43.660Z,99.90
2023-02-16T02:57:54.418Z,99.90
2023-02-16T03:00:51.923Z,99.90
2023-02-16T03:03:36.424Z,99.90
2023-02-16T03:06:08.556Z,99.90
2023-02-16T03:08:39.940Z,99.90
2023-02-16T03:11:32.864Z,99.90
2023-02-16T03:14:17.176Z,99.90
2023-02-16T03:17:18.338Z,99.90
2023-02-16T03:20:06.309Z,99.90
2023-02-16T03:22:54.002Z,99.90
2023-02-16T03:25:43.040Z,99.90
2023-02-16T03:28:31.052Z,99.90
2023-02-16T03:30:59.459Z,99.90
2023-02-16T03:33:28.009Z,99.90
2023-02-16T03:35:55.974Z,99.90
2023-02-16T03:38:23.148Z,99.90
2023-02-16T03:40:51.300Z,99.90
2023-02-16T03:43:18.543Z,99.90
2023-02-16T03:45:46.091Z,99.90
2023-02-16T03:48:13.544Z,99.90
2023-02-16T03:50:40.685Z,99.90
2023-02-16T03:53:07.953Z,99.90
2023-02-16T03:55:47.285Z,99.90
2023-02-16T03:58:20.004Z,99.90
2023-02-16T04:00:47.499Z,99.90
2023-02-16T04:03:15.226Z,99.90
2023-02-16T04:05:42.731Z,99.90
2023-02-16T04:08:10.832Z,99.90
2023-02-16T04:10:38.790Z,99.90
2023-02-16T04:13:05.990Z,99.90
2023-02-16T04:15:33.609Z,99.90
2023-02-16T04:18:01.490Z,99.90
2023-02-16T04:20:31.821Z,99.90
2023-02-16T04:22:59.069Z,99.90
2023-02-16T04:25:26.341Z,99.90
2023-02-16T04:27:53.839Z,99.90
2023-02-16T04:30:23.785Z,99.90
2023-02-16T04:32:51.121Z,99.90
2023-02-16T04:35:19.745Z,99.90
2023-02-16T04:37:47.048Z,99.90
2023-02-16T04:40:16.658Z,99.90
2023-02-16T04:42:44.662Z,99.90
2023-02-16T04:45:12.290Z,99.90
2023-02-16T04:47:39.365Z,99.90
2023-02-16T04:50:07.284Z,99.90
2023-02-16T04:52:34.563Z,99.90
2023-02-16T04:55:01.614Z,99.90
2023-02-16T04:57:28.928Z,99.90
2023-02-16T04:59:56.034Z,99.90
2023-02-16T05:02:23.412Z,99.90
2023-02-16T05:04:50.628Z,99.90
2023-02-16T05:07:17.695Z,99.90
2023-02-16T05:09:44.832Z,99.90
2023-02-16T05:12:30.687Z,99.90
2023-02-16T05:14:57.774Z,99.90
2023-02-16T05:17:27.105Z,99.90
2023-02-16T05:19:57.642Z,99.90
2023-02-16T05:22:25.815Z,99.90
2023-02-16T05:24:52.866Z,99.90
2023-02-16T05:27:23.029Z,99.90
2023-02-16T05:29:50.364Z,99.90
2023-02-16T05:32:18.000Z,99.90
2023-02-16T05:34:45.747Z,99.90
2023-02-16T05:37:17.084Z,99.90
2023-02-16T05:39:44.920Z,99.90
2023-02-16T05:42:12.084Z,99.90
2023-02-16T05:44:39.193Z,99.90
2023-02-16T05:47:06.402Z,99.90
2023-02-16T05:49:33.521Z,99.90
2023-02-16T05:52:00.558Z,99.90
2023-02-16T05:54:28.181Z,99.90
2023-02-16T05:56:55.768Z,99.90
2023-02-16T05:59:23.253Z,99.90
2023-02-16T06:01:52.242Z,99.90
2023-02-16T06:04:20.886Z,99.90
2023-02-16T06:06:48.308Z,99.90
2023-02-16T06:09:15.570Z,99.90
2023-02-16T06:11:43.140Z,99.90
2023-02-16T06:14:13.488Z,99.90
2023-02-16T06:16:43.358Z,99.90
2023-02-16T06:19:11.738Z,99.90
2023-02-16T06:21:39.733Z,99.90
2023-02-16T06:24:09.141Z,99.90
2023-02-16T06:26:36.410Z,99.90
2023-02-16T06:29:04.347Z,99.90
2023-02-16T06:31:33.225Z,99.90
2023-02-16T06:34:04.032Z,99.90
2023-02-16T06:36:31.745Z,99.90
2023-02-16T06:38:58.904Z,99.90
2023-02-16T06:41:34.583Z,99.90
2023-02-16T06:44:13.694Z,99.90
2023-02-16T06:46:42.753Z,99.90
2023-02-16T06:49:21.611Z,99.90
2023-02-16T06:51:49.818Z,99.90
2023-02-16T06:54:18.089Z,99.90
2023-02-16T06:56:45.531Z,99.90
2023-02-16T06:59:13.060Z,99.90
2023-02-16T07:01:40.107Z,99.90
2023-02-16T07:04:07.309Z,99.90
2023-02-16T07:06:34.587Z,99.90
2023-02-16T07:09:01.766Z,99.90
2023-02-16T07:11:29.426Z,99.90
2023-02-16T07:13:56.739Z,99.90
2023-02-16T07:16:24.365Z,99.90
2023-02-16T07:18:51.644Z,99.90
2023-02-16T07:21:18.731Z,99.90
2023-02-16T07:23:45.989Z,99.90
2023-02-16T07:26:13.313Z,99.90
2023-02-16T07:28:40.570Z,99.90
2023-02-16T07:31:13.785Z,99.90
2023-02-16T07:33:41.286Z,99.90
2023-02-16T07:36:09.950Z,99.90
2023-02-16T07:38:37.257Z,99.90
2023-02-16T07:41:07.744Z,99.90
2023-02-16T07:43:36.909Z,99.90
2023-02-16T07:46:04.213Z,99.90
2023-02-16T07:48:31.817Z,99.90
2023-02-16T07:50:59.062Z,99.90
2023-02-16T07:53:26.227Z,99.90
2023-02-16T07:55:53.311Z,99.90
2023-02-16T07:58:29.346Z,99.90
2023-02-16T08:01:15.466Z,99.90
2023-02-16T08:03:43.293Z,99.90
2023-02-16T08:06:10.938Z,99.90
2023-02-16T08:08:39.072Z,99.90
2023-02-16T08:11:18.022Z,99.90
2023-02-16T08:13:47.007Z,99.90
2023-02-16T08:16:25.923Z,99.90
2023-02-16T08:18:55.473Z,99.90
2023-02-16T08:21:25.000Z,99.90
2023-02-16T08:24:05.071Z,99.90
2023-02-16T08:26:41.113Z,99.90
2023-02-16T08:29:10.311Z,99.90
2023-02-16T08:31:38.686Z,99.90
2023-02-16T08:34:10.592Z,99.90
2023-02-16T08:36:43.935Z,99.90
2023-02-16T08:39:20.779Z,99.90
2023-02-16T08:41:49.959Z,99.90
2023-02-16T08:44:18.846Z,97.70
2023-02-16T08:46:51.123Z,99.90
2023-02-16T08:49:24.772Z,99.90
2023-02-16T08:51:58.921Z,99.90
2023-02-16T08:54:30.628Z,99.00
2023-02-16T08:57:04.979Z,99.00
2023-02-16T08:59:37.521Z,98.50
2023-02-16T09:02:09.971Z,96.20
2023-02-16T09:04:41.741Z,95.70
2023-02-16T09:07:13.334Z,93.00
2023-02-16T09:09:44.773Z,91.80
2023-02-16T09:12:16.837Z,93.50
2023-02-16T09:14:48.510Z,93.20
2023-02-16T09:17:20.591Z,93.10
2023-02-16T09:19:52.625Z,90.60
2023-02-16T09:22:24.695Z,87.70
2023-02-16T09:24:57.076Z,90.10
2023-02-16T09:27:29.827Z,87.00
2023-02-16T09:30:01.602Z,85.50
2023-02-16T09:32:34.984Z,85.70
2023-02-16T09:35:07.478Z,85.80
2023-02-16T09:37:34.551Z,84.80
2023-02-16T09:40:08.184Z,84.90
2023-02-16T09:42:57.102Z,79.80
2023-02-16T09:45:27.107Z,79.40
2023-02-16T09:47:56.681Z,80.90
2023-02-16T09:50:52.265Z,83.00
2023-02-16T09:53:30.312Z,80.00
2023-02-16T09:56:15.608Z,78.60
2023-02-16T09:58:56.459Z,76.50
2023-02-16T10:01:35.427Z,75.60
2023-02-16T10:04:21.352Z,75.10
2023-02-16T10:07:17.004Z,76.40
2023-02-16T10:09:49.234Z,77.70
2023-02-16T10:12:32.734Z,75.50
2023-02-16T10:15:09.520Z,74.90
2023-02-16T10:17:37.822Z,73.10
2023-02-16T10:20:24.741Z,71.60
2023-02-16T10:23:23.283Z,72.50
2023-02-16T10:26:00.743Z,71.80
2023-02-16T10:28:41.146Z,67.60
2023-02-16T10:31:21.146Z,68.00
2023-02-16T10:34:24.301Z,65.10
2023-02-16T10:37:15.894Z,63.80
2023-02-16T10:39:57.816Z,64.10
2023-02-16T10:42:30.704Z,62.70
2023-02-16T10:45:16.339Z,62.40
2023-02-16T10:47:45.449Z,61.70
2023-02-16T10:50:37.976Z,63.00
2023-02-16T10:53:18.931Z,61.80
2023-02-16T10:55:46.014Z,62.00
2023-02-16T10:58:22.874Z,61.40
2023-02-16T11:01:28.408Z,61.10
2023-02-16T11:03:55.804Z,61.20
2023-02-16T11:06:29.250Z,62.50
2023-02-16T11:09:01.864Z,60.10
2023-02-16T11:11:39.776Z,59.30
2023-02-16T11:14:25.043Z,59.60
2023-02-16T11:17:12.751Z,59.40
2023-02-16T11:19:47.980Z,58.10
2023-02-16T11:22:44.572Z,57.90
2023-02-16T11:25:24.681Z,58.40
2023-02-16T11:27:59.796Z,59.20
2023-02-16T11:30:33.865Z,58.20
2023-02-16T11:33:03.687Z,58.80
2023-02-16T11:35:41.227Z,58.10
2023-02-16T11:38:27.064Z,59.00
2023-02-16T11:40:54.615Z,58.80
2023-02-16T11:43:22.235Z,58.80
2023-02-16T11:46:07.817Z,58.70
2023-02-16T11:48:35.233Z,57.40
2023-02-16T11:51:10.952Z,57.00
2023-02-16T11:53:42.998Z,58.00
2023-02-16T11:56:10.817Z,58.30
2023-02-16T11:58:38.076Z,56.50
2023-02-16T12:01:29.193Z,57.60
2023-02-16T12:04:21.442Z,55.30
2023-02-16T12:06:59.479Z,56.20
2023-02-16T12:09:46.178Z,56.50
2023-02-16T12:12:30.777Z,56.10
2023-02-16T12:15:19.683Z,56.20
2023-02-16T12:18:16.502Z,56.30
2023-02-16T12:20:53.306Z,55.50
2023-02-16T12:23:39.080Z,55.00
2023-02-16T12:26:17.820Z,54.80
2023-02-16T12:29:01.717Z,54.60
2023-02-16T12:31:47.587Z,55.90
2023-02-16T12:34:33.509Z,55.20
2023-02-16T12:37:04.586Z,53.10
2023-02-16T12:39:46.051Z,53.60
2023-02-16T12:42:50.067Z,53.50
2023-02-16T12:45:22.207Z,52.90
2023-02-16T12:48:15.292Z,53.60
2023-02-16T12:50:44.579Z,55.70
2023-02-16T12:53:14.794Z,54.20
2023-02-16T12:56:20.858Z,52.40
2023-02-16T12:58:53.605Z,52.20
2023-02-16T13:01:33.995Z,52.20
2023-02-16T13:04:24.308Z,51.50
2023-02-16T13:07:18.529Z,52.20
2023-02-16T13:10:16.393Z,51.40
2023-02-16T13:13:17.956Z,52.50
2023-02-16T13:15:56.841Z,51.30
2023-02-16T13:18:32.752Z,50.60
2023-02-16T13:21:49.071Z,50.40
2023-02-16T13:24:29.668Z,49.60
2023-02-16T13:27:07.111Z,49.30
2023-02-16T13:29:52.861Z,48.70
2023-02-16T13:32:43.850Z,48.30
2023-02-16T13:35:41.338Z,48.40
2023-02-16T13:38:51.197Z,48.30
2023-02-16T13:41:18.212Z,48.60
2023-02-16T13:43:57.038Z,49.10
2023-02-16T13:46:42.921Z,48.40
2023-02-16T13:49:40.520Z,47.60
2023-02-16T13:52:09.043Z,47.70
2023-02-16T13:54:43.950Z,48.40
2023-02-16T13:57:18.612Z,47.80
2023-02-16T13:59:58.579Z,48.50
2023-02-16T14:02:55.226Z,48.60
2023-02-16T14:05:31.434Z,47.80
2023-02-16T14:08:20.174Z,47.80
2023-02-16T14:10:56.336Z,47.70
2023-02-16T14:13:38.927Z,47.70
2023-02-16T14:16:24.553Z,48.00
2023-02-16T14:19:20.756Z,48.70
2023-02-16T14:21:54.555Z,47.80
2023-02-16T14:24:41.158Z,48.80
2023-02-16T14:27:15.103Z,48.70
2023-02-16T14:30:03.569Z,49.80
2023-02-16T14:32:38.707Z,50.70
2023-02-16T14:35:38.198Z,50.20
2023-02-16T14:38:29.902Z,50.80
2023-02-16T14:41:05.913Z,51.20
2023-02-16T14:43:48.446Z,51.40
2023-02-16T14:46:55.939Z,51.90
2023-02-16T14:50:10.344Z,51.60
2023-02-16T14:53:08.857Z,51.80
2023-02-16T14:56:12.073Z,52.10
2023-02-16T14:58:58.234Z,52.20
2023-02-16T15:01:26.299Z,52.50
2023-02-16T15:04:00.787Z,52.30
2023-02-16T15:06:47.510Z,51.90
2023-02-16T15:09:33.309Z,52.20
2023-02-16T15:12:24.217Z,52.30
2023-02-16T15:15:03.556Z,53.00
2023-02-16T15:17:47.865Z,52.40
2023-02-16T15:20:42.224Z,52.60
2023-02-16T15:23:34.571Z,52.60
2023-02-16T15:26:17.812Z,53.00
2023-02-16T15:28:56.897Z,53.10
2023-02-16T15:31:42.020Z,53.40
2023-02-16T15:34:30.394Z,54.40
2023-02-16T15:37:03.922Z,54.40
2023-02-16T15:39:46.431Z,54.50
2023-02-16T15:42:26.402Z,54.50
2023-02-16T15:44:56.387Z,54.90
2023-02-16T15:47:26.268Z,55.00
2023-02-16T15:49:54.329Z,55.40
2023-02-16T15:52:33.835Z,56.40
2023-02-16T15:55:02.643Z,56.70
2023-02-16T15:57:38.992Z,57.20
2023-02-16T16:00:21.864Z,57.40
2023-02-16T16:02:51.359Z,58.10
2023-02-16T16:05:25.504Z,58.30
2023-02-16T16:07:54.707Z,59.10
2023-02-16T16:10:26.327Z,59.00
2023-02-16T16:12:58.960Z,59.90
2023-02-16T16:15:29.160Z,60.30
2023-02-16T16:17:59.997Z,60.80
2023-02-16T16:20:42.372Z,61.50
2023-02-16T16:23:15.856Z,62.30
2023-02-16T16:25:46.211Z,62.30
2023-02-16T16:28:32.658Z,62.30
2023-02-16T16:31:17.485Z,63.10
2023-02-16T16:34:05.269Z,63.60
2023-02-16T16:36:37.105Z,64.50
2023-02-16T16:39:19.394Z,65.20
2023-02-16T16:42:08.088Z,65.70
2023-02-16T16:44:38.099Z,65.90
2023-02-16T16:47:27.983Z,66.10
2023-02-16T16:50:03.281Z,66.60
2023-02-16T16:52:44.205Z,67.50
2023-02-16T16:55:21.606Z,67.80
2023-02-16T16:57:53.818Z,67.40
2023-02-16T17:00:23.296Z,67.40
2023-02-16T17:02:50.380Z,67.90
2023-02-16T17:05:18.781Z,68.40
2023-02-16T17:07:49.270Z,69.70
2023-02-16T17:10:19.041Z,69.20
2023-02-16T17:12:51.184Z,69.80
2023-02-16T17:15:44.209Z,69.90
2023-02-16T17:18:19.059Z,70.10
2023-02-16T17:20:47.333Z,70.50
2023-02-16T17:23:16.391Z,71.20
2023-02-16T17:25:44.485Z,71.60
2023-02-16T17:28:13.087Z,71.80
2023-02-16T17:30:40.264Z,72.20
2023-02-16T17:33:07.959Z,72.80
2023-02-16T17:35:37.964Z,73.70
2023-02-16T17:38:19.201Z,74.80
2023-02-16T17:40:51.048Z,75.00
2023-02-16T17:43:19.448Z,76.30
2023-02-16T17:45:47.291Z,77.50
2023-02-16T17:48:24.537Z,79.00
2023-02-16T17:50:51.927Z,81.30
2023-02-16T17:53:22.200Z,82.70
2023-02-16T17:55:51.989Z,86.80
2023-02-16T17:58:20.054Z,87.60
2023-02-16T18:00:47.462Z,89.40
2023-02-16T18:03:14.772Z,91.40
2023-02-16T18:06:36.141Z,91.00
2023-02-16T18:09:04.219Z,91.60
2023-02-16T18:11:31.901Z,93.40
2023-02-16T18:13:59.019Z,93.80
2023-02-16T18:16:27.373Z,93.60
2023-02-16T18:18:54.790Z,94.10
2023-02-16T18:21:21.907Z,94.60
2023-02-16T18:23:49.560Z,94.80
2023-02-16T18:26:17.282Z,94.30
2023-02-16T18:28:45.218Z,94.60
2023-02-16T18:31:13.242Z,95.10
2023-02-16T18:33:40.694Z,95.70
2023-02-16T18:36:08.340Z,95.20
2023-02-16T18:38:35.584Z,95.40
2023-02-16T18:41:02.763Z,96.40
2023-02-16T18:43:29.951Z,96.20
2023-02-16T18:45:57.389Z,96.30
2023-02-16T18:48:24.538Z,96.40
2023-02-16T18:50:51.762Z,96.60
2023-02-16T18:53:18.940Z,96.10
2023-02-16T18:55:46.158Z,96.80
2023-02-16T18:58:15.019Z,99.90
2023-02-16T19:00:42.167Z,99.90
2023-02-16T19:03:09.993Z,99.90
2023-02-16T19:05:37.344Z,99.60
2023-02-16T19:08:04.685Z,99.60
2023-02-16T19:10:32.807Z,98.90
2023-02-16T19:13:01.331Z,98.60
2023-02-16T19:15:29.468Z,98.40
2023-02-16T19:17:56.600Z,99.00
2023-02-16T19:20:24.060Z,99.50
2023-02-16T19:22:51.279Z,99.50
2023-02-16T19:25:18.432Z,99.00
2023-02-16T19:27:45.696Z,98.90
2023-02-16T19:30:13.662Z,98.90
2023-02-16T19:32:41.414Z,99.10
2023-02-16T19:35:12.358Z,99.00
2023-02-16T19:37:39.841Z,99.10
2023-02-16T19:40:11.647Z,98.70
2023-02-16T19:42:39.566Z,99.60
2023-02-16T19:45:07.445Z,99.50
2023-02-16T19:47:34.487Z,99.30
2023-02-16T19:50:02.077Z,99.10
2023-02-16T19:52:29.234Z,99.00
2023-02-16T19:54:56.351Z,99.30
2023-02-16T19:57:23.525Z,99.50
2023-02-16T19:59:50.676Z,99.30
2023-02-16T20:02:18.013Z,99.40
2023-02-16T20:04:45.176Z,98.90
2023-02-16T20:07:12.360Z,99.00
2023-02-16T20:09:39.866Z,99.30
2023-02-16T20:12:07.200Z,99.10
2023-02-16T20:14:34.410Z,99.90
2023-02-16T20:17:01.667Z,99.90
2023-02-16T20:19:28.727Z,99.90
2023-02-16T20:21:55.880Z,99.90
2023-02-16T20:24:22.927Z,99.90
2023-02-16T20:26:52.205Z,99.90
2023-02-16T20:29:20.981Z,99.90
2023-02-16T20:31:55.454Z,99.90
2023-02-16T20:34:25.190Z,99.90
2023-02-16T20:36:52.541Z,99.90
2023-02-16T20:39:20.352Z,99.90
2023-02-16T20:41:47.473Z,99.90
2023-02-16T20:44:15.825Z,99.90
2023-02-16T20:46:43.422Z,99.90
2023-02-16T20:49:10.700Z,99.90
2023-02-16T20:51:40.226Z,99.90
2023-02-16T20:54:08.811Z,99.90
2023-02-16T20:56:35.943Z,99.90
2023-02-16T20:59:08.466Z,99.90
2023-02-16T21:01:37.611Z,99.90
2023-02-16T21:04:07.352Z,99.90
2023-02-16T21:06:35.639Z,99.90
2023-02-16T21:09:04.062Z,99.90
2023-02-16T21:11:31.774Z,99.90
2023-02-16T21:14:00.160Z,99.90
2023-02-16T21:16:27.285Z,99.90
2023-02-16T21:18:55.513Z,99.90
2023-02-16T21:21:23.041Z,99.90
2023-02-16T21:23:54.296Z,99.90
2023-02-16T21:26:24.891Z,99.90
2023-02-16T21:28:58.059Z,99.90
2023-02-16T21:31:28.990Z,99.90
2023-02-16T21:33:57.478Z,99.90
2023-02-16T21:36:26.867Z,99.90
2023-02-16T21:38:55.204Z,99.90
2023-02-16T21:41:26.299Z,99.90
2023-02-16T21:44:08.840Z,99.90
2023-02-16T21:46:47.695Z,99.90
2023-02-16T21:49:17.330Z,99.90
2023-02-16T21:51:45.539Z,99.90
2023-02-16T21:54:18.328Z,99.90
2023-02-16T21:56:50.407Z,99.90
2023-02-16T21:59:19.920Z,99.90
2023-02-16T22:01:51.505Z,99.90
2023-02-16T22:04:22.637Z,99.90
2023-02-16T22:06:51.282Z,99.90
2023-02-16T22:09:20.921Z,99.90
2023-02-16T22:11:49.048Z,99.90
2023-02-16T22:14:17.432Z,99.90
2023-02-16T22:16:46.251Z,99.90
2023-02-16T22:19:15.791Z,99.90
2023-02-16T22:21:44.226Z,99.90
2023-02-16T22:24:15.187Z,99.90
2023-02-16T22:26:43.014Z,99.90
2023-02-16T22:29:11.021Z,99.90
2023-02-16T22:31:38.751Z,99.90
2023-02-16T22:34:08.625Z,99.90
2023-02-16T22:36:36.862Z,99.90
2023-02-16T22:39:04.888Z,99.90
2023-02-16T22:41:33.741Z,99.90
2023-02-16T22:44:01.336Z,99.90
2023-02-16T22:46:29.656Z,99.90
2023-02-16T22:49:02.123Z,99.90
2023-02-16T22:51:31.050Z,99.90
2023-02-16T22:54:00.005Z,99.90
2023-02-16T22:56:27.852Z,99.90
2023-02-16T22:58:57.616Z,99.90
2023-02-16T23:01:28.719Z,99.90
2023-02-16T23:03:57.832Z,99.90
2023-02-16T23:06:34.637Z,99.90
2023-02-16T23:09:05.826Z,99.90
2023-02-16T23:11:33.491Z,99.90
2023-02-16T23:14:00.964Z,99.90
2023-02-16T23:16:28.801Z,99.90
2023-02-16T23:18:59.611Z,99.90
2023-02-16T23:21:32.105Z,99.90
2023-02-16T23:24:00.067Z,99.90
2023-02-16T23:26:29.251Z,99.90
2023-02-16T23:28:58.675Z,99.90
2023-02-16T23:31:25.952Z,99.90
2023-02-16T23:33:55.935Z,99.90
2023-02-16T23:36:23.056Z,99.90
2023-02-16T23:38:50.146Z,99.90
2023-02-16T23:41:17.286Z,99.90
2023-02-16T23:43:44.780Z,99.90
2023-02-16T23:46:12.306Z,99.90
2023-02-16T23:48:39.551Z,99.90
2023-02-16T23:51:06.791Z,99.90
2023-02-16T23:53:34.223Z,99.90
2023-02-16T23:56:08.916Z,99.90
2023-02-16T23:58:41.369Z,99.90
